createdAt,value
2018-08-18T00:00:22.673Z,63.20
2018-08-18T00:02:51.070Z,62.30
2018-08-18T00:05:19.522Z,62.59
2018-08-18T00:07:48.233Z,62.08
2018-08-18T00:10:18.202Z,62.72
2018-08-18T00:12:46.604Z,63.97
2018-08-18T00:15:14.956Z,64.18
2018-08-18T00:17:43.305Z,63.58
2018-08-18T00:20:14.669Z,62.15
2018-08-18T00:22:43.062Z,62.29
2018-08-18T00:25:11.426Z,62.28
2018-08-18T00:27:39.764Z,63.84
2018-08-18T00:30:14.915Z,63.42
2018-08-18T00:32:43.570Z,62.93
2018-08-18T00:35:11.886Z,63.19
2018-08-18T00:37:40.236Z,65.54
2018-08-18T00:40:09.834Z,63.56
2018-08-18T00:42:38.515Z,63.80
2018-08-18T00:45:08.739Z,63.80
2018-08-18T00:47:37.337Z,63.73
2018-08-18T00:50:06.009Z,63.96
2018-08-18T00:52:34.373Z,64.84
2018-08-18T00:55:02.875Z,65.36
2018-08-18T00:57:32.216Z,64.12
2018-08-18T01:00:00.856Z,63.93
2018-08-18T01:02:29.555Z,65.06
2018-08-18T01:05:02.943Z,63.83
2018-08-18T01:07:32.446Z,63.98
2018-08-18T01:10:01.251Z,64.10
2018-08-18T01:12:29.695Z,63.57
2018-08-18T01:14:58.384Z,64.20
2018-08-18T01:17:26.983Z,64.73
2018-08-18T01:19:57.014Z,64.35
2018-08-18T01:22:25.586Z,64.35
2018-08-18T01:24:54.281Z,63.94
2018-08-18T01:27:22.978Z,63.99
2018-08-18T01:29:55.482Z,65.00
2018-08-18T01:32:23.858Z,64.50
2018-08-18T01:34:52.814Z,65.15
2018-08-18T01:37:21.696Z,65.09
2018-08-18T01:39:53.365Z,65.03
2018-08-18T01:42:21.934Z,65.42
2018-08-18T01:44:52.120Z,65.25
2018-08-18T01:47:20.493Z,64.98
2018-08-18T01:49:48.828Z,65.37
2018-08-18T01:52:24.378Z,66.83
2018-08-18T01:54:52.726Z,65.03
2018-08-18T01:57:22.243Z,65.36
2018-08-18T01:59:50.747Z,64.86
2018-08-18T02:02:21.213Z,64.81
2018-08-18T02:04:50.210Z,65.07
2018-08-18T02:07:27.133Z,66.05
2018-08-18T02:09:55.935Z,65.52
2018-08-18T02:12:24.622Z,65.72
2018-08-18T02:14:53.404Z,65.99
2018-08-18T02:17:33.042Z,66.15
2018-08-18T02:20:01.642Z,66.09
2018-08-18T02:22:30.732Z,67.27
2018-08-18T02:24:59.213Z,65.90
2018-08-18T02:27:27.778Z,66.45
2018-08-18T02:30:09.073Z,67.12
2018-08-18T02:32:38.627Z,66.69
2018-08-18T02:35:07.662Z,67.06
2018-08-18T02:37:36.192Z,67.06
2018-08-18T02:40:08.187Z,66.90
2018-08-18T02:42:36.507Z,68.26
2018-08-18T02:45:05.662Z,67.00
2018-08-18T02:47:34.082Z,68.25
2018-08-18T02:50:02.495Z,68.17
2018-08-18T02:52:33.632Z,67.28
2018-08-18T02:55:04.078Z,68.21
2018-08-18T02:57:33.848Z,68.25
2018-08-18T03:00:06.199Z,68.82
2018-08-18T03:02:34.693Z,68.34
2018-08-18T03:05:03.111Z,69.23
2018-08-18T03:07:40.297Z,68.41
2018-08-18T03:10:15.604Z,68.35
2018-08-18T03:12:45.914Z,68.89
2018-08-18T03:15:51.896Z,68.37
2018-08-18T03:18:32.503Z,68.80
2018-08-18T03:21:01.861Z,70.01
2018-08-18T03:23:30.430Z,68.66
2018-08-18T03:25:58.815Z,68.89
2018-08-18T03:28:27.198Z,68.37
2018-08-18T03:30:56.299Z,68.67
2018-08-18T03:33:24.669Z,68.78
2018-08-18T03:35:53.083Z,68.89
2018-08-18T03:38:21.484Z,69.10
2018-08-18T03:40:49.840Z,70.03
2018-08-18T03:43:18.183Z,70.55
2018-08-18T03:45:46.552Z,69.29
2018-08-18T03:48:14.912Z,69.00
2018-08-18T03:50:47.723Z,69.90
2018-08-18T03:53:19.181Z,70.54
2018-08-18T03:55:47.588Z,71.13
2018-08-18T03:58:15.964Z,70.95
2018-08-18T04:00:44.388Z,70.29
2018-08-18T04:03:12.784Z,71.28
2018-08-18T04:05:41.161Z,70.86
2018-08-18T04:08:09.542Z,70.85
2018-08-18T04:10:37.935Z,70.77
2018-08-18T04:13:06.297Z,72.64
2018-08-18T04:15:34.687Z,72.58
2018-08-18T04:18:08.311Z,72.03
2018-08-18T04:20:36.686Z,71.73
2018-08-18T04:23:05.036Z,71.47
2018-08-18T04:25:33.375Z,71.90
2018-08-18T04:28:01.737Z,71.37
2018-08-18T04:30:30.991Z,72.43
2018-08-18T04:33:02.459Z,74.54
2018-08-18T04:35:31.756Z,72.52
2018-08-18T04:38:01.758Z,72.66
2018-08-18T04:40:30.162Z,72.48
2018-08-18T04:42:59.745Z,72.99
2018-08-18T04:45:28.125Z,71.96
2018-08-18T04:47:56.494Z,73.18
2018-08-18T04:50:24.901Z,72.49
2018-08-18T04:52:54.107Z,73.05
2018-08-18T04:55:22.704Z,72.04
2018-08-18T04:57:51.271Z,74.61
2018-08-18T05:00:19.705Z,73.34
2018-08-18T05:03:03.558Z,72.17
2018-08-18T05:05:32.703Z,72.60
2018-08-18T05:08:01.900Z,72.27
2018-08-18T05:10:30.782Z,72.65
2018-08-18T05:12:59.150Z,71.49
2018-08-18T05:15:27.518Z,72.03
2018-08-18T05:17:55.936Z,72.33
2018-08-18T05:20:25.997Z,71.39
2018-08-18T05:22:54.366Z,71.91
2018-08-18T05:25:28.974Z,71.55
2018-08-18T05:27:58.230Z,71.73
2018-08-18T05:30:26.717Z,71.22
2018-08-18T05:32:55.070Z,71.04
2018-08-18T05:35:23.420Z,71.57
2018-08-18T05:37:51.773Z,71.25
2018-08-18T05:40:20.152Z,70.57
2018-08-18T05:42:48.491Z,71.16
2018-08-18T05:45:37.752Z,70.72
2018-08-18T05:48:06.108Z,70.48
2018-08-18T05:50:34.468Z,70.39
2018-08-18T05:53:15.203Z,70.48
2018-08-18T05:55:43.635Z,70.28
2018-08-18T05:58:12.597Z,70.83
2018-08-18T06:00:40.980Z,69.78
2018-08-18T06:03:09.423Z,69.98
2018-08-18T06:05:37.928Z,69.76
2018-08-18T06:08:06.612Z,69.33
2018-08-18T06:10:34.963Z,69.45
2018-08-18T06:13:08.605Z,68.45
2018-08-18T06:15:36.991Z,68.52
2018-08-18T06:18:05.620Z,67.89
2018-08-18T06:20:33.964Z,67.47
2018-08-18T06:23:02.327Z,67.12
2018-08-18T06:25:30.768Z,67.53
2018-08-18T06:27:59.177Z,67.36
2018-08-18T06:30:27.528Z,67.16
2018-08-18T06:32:55.903Z,65.81
2018-08-18T06:35:24.326Z,65.80
2018-08-18T06:37:58.068Z,65.44
2018-08-18T06:40:26.424Z,63.58
2018-08-18T06:42:54.789Z,62.73
2018-08-18T06:45:23.194Z,63.40
2018-08-18T06:47:51.666Z,62.87
2018-08-18T06:50:21.256Z,62.41
2018-08-18T06:52:49.611Z,62.20
2018-08-18T06:55:20.264Z,61.67
2018-08-18T06:57:53.535Z,61.61
2018-08-18T07:00:23.375Z,60.54
2018-08-18T07:02:51.739Z,60.15
2018-08-18T07:05:20.633Z,58.89
2018-08-18T07:07:49.923Z,58.57
2018-08-18T07:10:35.944Z,57.15
2018-08-18T07:13:05.546Z,56.90
2018-08-18T07:15:36.067Z,55.94
2018-08-18T07:18:05.037Z,55.73
2018-08-18T07:20:33.403Z,54.14
2018-08-18T07:23:01.833Z,53.79
2018-08-18T07:25:30.219Z,54.98
2018-08-18T07:28:03.983Z,54.34
2018-08-18T07:30:32.793Z,53.03
2018-08-18T07:33:01.664Z,52.21
2018-08-18T07:35:30.147Z,49.50
2018-08-18T07:37:58.552Z,51.26
2018-08-18T07:40:33.254Z,52.25
2018-08-18T07:43:06.173Z,51.63
2018-08-18T07:45:35.130Z,51.55
2018-08-18T07:48:03.886Z,48.03
2018-08-18T07:50:32.604Z,49.63
2018-08-18T07:53:01.098Z,47.81
2018-08-18T07:55:29.688Z,48.74
2018-08-18T07:57:59.392Z,48.87
2018-08-18T08:00:28.898Z,50.27
2018-08-18T08:02:57.472Z,49.17
2018-08-18T08:05:25.850Z,48.40
2018-08-18T08:07:54.202Z,46.70
2018-08-18T08:10:22.648Z,46.71
2018-08-18T08:12:51.091Z,47.01
2018-08-18T08:15:19.420Z,46.53
2018-08-18T08:17:48.154Z,46.32
2018-08-18T08:20:17.439Z,45.86
2018-08-18T08:22:46.473Z,45.91
2018-08-18T08:25:14.904Z,46.04
2018-08-18T08:27:47.300Z,45.96
2018-08-18T08:30:16.294Z,46.52
2018-08-18T08:32:44.984Z,47.06
2018-08-18T08:35:13.468Z,47.59
2018-08-18T08:37:42.049Z,47.17
2018-08-18T08:40:13.095Z,47.08
2018-08-18T08:42:41.544Z,47.66
2018-08-18T08:45:12.304Z,47.80
2018-08-18T08:47:41.068Z,47.30
2018-08-18T08:50:11.206Z,48.71
2018-08-18T08:52:45.008Z,48.48
2018-08-18T08:55:13.395Z,48.10
2018-08-18T08:57:41.777Z,47.92
2018-08-18T09:00:10.741Z,48.07
2018-08-18T09:02:39.092Z,47.92
2018-08-18T09:05:07.838Z,47.16
2018-08-18T09:07:36.532Z,46.63
2018-08-18T09:10:05.996Z,46.93
2018-08-18T09:12:34.406Z,46.35
2018-08-18T09:15:02.746Z,46.79
2018-08-18T09:17:31.094Z,45.12
2018-08-18T09:19:59.473Z,45.75
2018-08-18T09:22:27.853Z,43.73
2018-08-18T09:24:57.911Z,41.91
2018-08-18T09:27:26.254Z,41.81
2018-08-18T09:29:55.533Z,42.58
2018-08-18T09:32:23.896Z,42.62
2018-08-18T09:34:53.208Z,42.03
2018-08-18T09:37:22.080Z,41.91
2018-08-18T09:39:50.426Z,42.10
2018-08-18T09:42:19.792Z,42.37
2018-08-18T09:44:49.783Z,42.41
2018-08-18T09:47:18.198Z,41.84
2018-08-18T09:49:46.677Z,42.38
2018-08-18T09:52:16.779Z,41.80
2018-08-18T09:54:45.200Z,42.25
2018-08-18T09:57:13.588Z,42.32
2018-08-18T09:59:43.225Z,41.49
2018-08-18T10:02:12.574Z,42.68
2018-08-18T10:04:40.940Z,42.14
2018-08-18T10:07:09.440Z,42.17
2018-08-18T10:09:37.827Z,41.75
2018-08-18T10:12:06.926Z,41.74
2018-08-18T10:14:35.305Z,41.75
2018-08-18T10:17:03.799Z,41.75
2018-08-18T10:19:33.061Z,41.75
2018-08-18T10:22:02.156Z,41.45
2018-08-18T10:24:30.532Z,41.52
2018-08-18T10:27:05.362Z,41.32
2018-08-18T10:29:33.748Z,41.43
2018-08-18T10:32:02.127Z,40.15
2018-08-18T10:34:31.706Z,40.71
2018-08-18T10:37:05.252Z,40.79
2018-08-18T10:39:34.085Z,41.21
2018-08-18T10:42:14.661Z,41.74
2018-08-18T10:44:49.591Z,40.92
2018-08-18T10:47:20.127Z,41.20
2018-08-18T10:49:59.891Z,40.88
2018-08-18T10:52:40.156Z,40.38
2018-08-18T10:55:10.766Z,41.24
2018-08-18T10:57:51.495Z,40.91
2018-08-18T11:00:21.247Z,39.51
2018-08-18T11:02:50.862Z,40.20
2018-08-18T11:05:19.758Z,39.92
2018-08-18T11:07:56.669Z,40.54
2018-08-18T11:10:26.736Z,39.75
2018-08-18T11:12:55.108Z,39.88
2018-08-18T11:15:23.552Z,40.20
2018-08-18T11:17:51.965Z,40.30
2018-08-18T11:20:23.737Z,40.32
2018-08-18T11:22:57.016Z,40.44
2018-08-18T11:25:28.481Z,40.37
2018-08-18T11:27:57.577Z,40.81
2018-08-18T11:30:26.169Z,40.84
2018-08-18T11:32:55.561Z,41.35
2018-08-18T11:35:23.959Z,41.56
2018-08-18T11:37:57.834Z,41.41
2018-08-18T11:40:27.051Z,41.79
2018-08-18T11:42:58.500Z,41.68
2018-08-18T11:45:28.936Z,42.25
2018-08-18T11:48:16.261Z,42.18
2018-08-18T11:50:45.040Z,41.58
2018-08-18T11:53:13.420Z,42.42
2018-08-18T11:55:41.824Z,42.61
2018-08-18T11:58:12.084Z,43.16
2018-08-18T12:00:44.072Z,42.72
2018-08-18T12:03:16.671Z,43.21
2018-08-18T12:05:48.448Z,43.57
2018-08-18T12:08:18.391Z,43.74
2018-08-18T12:10:47.496Z,43.05
2018-08-18T12:13:15.831Z,43.08
2018-08-18T12:15:58.728Z,43.29
2018-08-18T12:18:28.934Z,42.99
2018-08-18T12:20:59.489Z,43.28
2018-08-18T12:23:28.281Z,43.23
2018-08-18T12:26:04.354Z,43.82
2018-08-18T12:28:43.005Z,44.85
2018-08-18T12:31:13.500Z,44.02
2018-08-18T12:33:42.050Z,44.56
2018-08-18T12:36:10.799Z,44.54
2018-08-18T12:38:42.559Z,44.33
2018-08-18T12:41:10.945Z,44.21
2018-08-18T12:43:40.812Z,44.86
2018-08-18T12:46:12.048Z,45.12
2018-08-18T12:48:43.658Z,45.01
2018-08-18T12:51:13.114Z,45.22
2018-08-18T12:53:48.163Z,44.74
2018-08-18T12:56:18.596Z,45.21
2018-08-18T12:58:47.074Z,44.96
2018-08-18T13:01:57.641Z,45.05
2018-08-18T13:04:26.119Z,45.08
2018-08-18T13:06:54.708Z,45.40
2018-08-18T13:09:24.614Z,44.54
2018-08-18T13:11:54.320Z,44.89
2018-08-18T13:14:27.572Z,44.85
2018-08-18T13:16:55.879Z,45.04
2018-08-18T13:19:26.014Z,44.96
2018-08-18T13:21:54.395Z,45.41
2018-08-18T13:24:22.786Z,45.43
2018-08-18T13:26:51.197Z,45.23
2018-08-18T13:29:19.575Z,45.23
2018-08-18T13:31:47.920Z,45.69
2018-08-18T13:34:17.514Z,45.32
2018-08-18T13:36:46.653Z,45.54
2018-08-18T13:39:16.338Z,45.24
2018-08-18T13:41:45.624Z,45.25
2018-08-18T13:44:25.746Z,45.49
2018-08-18T13:46:54.227Z,46.07
2018-08-18T13:49:24.907Z,45.69
2018-08-18T13:51:53.460Z,45.48
2018-08-18T13:54:22.263Z,45.14
2018-08-18T13:56:51.120Z,45.60
2018-08-18T13:59:35.728Z,45.71
2018-08-18T14:02:04.138Z,45.53
2018-08-18T14:04:32.511Z,45.11
2018-08-18T14:07:00.861Z,45.10
2018-08-18T14:09:29.230Z,46.09
2018-08-18T14:12:03.021Z,45.68
2018-08-18T14:14:31.388Z,45.72
2018-08-18T14:16:59.763Z,46.40
2018-08-18T14:19:28.162Z,46.56
2018-08-18T14:22:00.704Z,46.80
2018-08-18T14:24:33.327Z,47.16
2018-08-18T14:27:03.119Z,46.57
2018-08-18T14:29:32.798Z,47.56
2018-08-18T14:32:01.857Z,46.96
2018-08-18T14:34:30.469Z,46.27
2018-08-18T14:37:15.437Z,46.21
2018-08-18T14:39:44.128Z,45.94
2018-08-18T14:42:12.459Z,46.29
2018-08-18T14:44:40.879Z,46.28
2018-08-18T14:47:09.262Z,46.75
2018-08-18T14:49:37.609Z,47.10
2018-08-18T14:52:06.060Z,47.90
2018-08-18T14:54:34.554Z,47.78
2018-08-18T14:57:03.878Z,47.44
2018-08-18T14:59:33.478Z,47.21
2018-08-18T15:02:03.298Z,47.81
2018-08-18T15:04:31.739Z,46.96
2018-08-18T15:07:00.291Z,47.51
2018-08-18T15:09:40.890Z,47.79
2018-08-18T15:12:09.267Z,47.52
2018-08-18T15:14:37.613Z,47.49
2018-08-18T15:17:06.017Z,47.39
2018-08-18T15:19:34.406Z,48.62
2018-08-18T15:22:06.339Z,48.75
2018-08-18T15:24:34.721Z,48.59
2018-08-18T15:27:03.125Z,47.94
2018-08-18T15:29:31.964Z,48.52
2018-08-18T15:32:00.705Z,47.70
2018-08-18T15:34:29.083Z,48.08
2018-08-18T15:36:57.464Z,49.60
2018-08-18T15:39:27.415Z,48.14
2018-08-18T15:41:57.829Z,47.71
2018-08-18T15:44:26.179Z,48.22
2018-08-18T15:46:54.530Z,48.74
2018-08-18T15:49:22.872Z,48.75
2018-08-18T15:51:51.287Z,48.06
2018-08-18T15:54:19.719Z,48.26
2018-08-18T15:56:48.104Z,50.37
2018-08-18T15:59:16.525Z,50.87
2018-08-18T16:01:44.936Z,50.39
2018-08-18T16:04:13.386Z,51.28
2018-08-18T16:06:41.764Z,51.31
2018-08-18T16:09:10.169Z,50.45
2018-08-18T16:11:38.654Z,50.12
2018-08-18T16:14:07.112Z,51.29
2018-08-18T16:16:49.656Z,49.73
2018-08-18T16:19:18.152Z,49.89
2018-08-18T16:21:46.597Z,50.18
2018-08-18T16:24:29.909Z,50.58
2018-08-18T16:26:58.460Z,50.75
2018-08-18T16:29:26.974Z,52.15
2018-08-18T16:32:10.894Z,51.34
2018-08-18T16:34:39.333Z,53.16
2018-08-18T16:37:07.848Z,52.75
2018-08-18T16:39:36.300Z,52.84
2018-08-18T16:42:05.245Z,52.12
2018-08-18T16:44:33.861Z,51.83
2018-08-18T16:47:04.394Z,52.20
2018-08-18T16:49:33.160Z,51.45
2018-08-18T16:52:01.815Z,52.61
2018-08-18T16:54:32.343Z,52.14
2018-08-18T16:57:01.061Z,51.51
2018-08-18T16:59:30.061Z,52.08
2018-08-18T17:01:58.796Z,51.07
2018-08-18T17:04:31.011Z,51.73
2018-08-18T17:06:59.806Z,51.22
2018-08-18T17:09:41.419Z,52.13
2018-08-18T17:12:23.956Z,52.29
2018-08-18T17:14:52.355Z,52.33
2018-08-18T17:17:23.298Z,51.75
2018-08-18T17:19:51.797Z,52.14
2018-08-18T17:22:20.216Z,52.17
2018-08-18T17:24:48.643Z,52.20
2018-08-18T17:27:17.085Z,51.75
2018-08-18T17:29:47.228Z,52.58
2018-08-18T17:32:15.691Z,52.62
2018-08-18T17:34:44.156Z,53.89
2018-08-18T17:37:12.631Z,53.28
2018-08-18T17:39:41.063Z,53.09
2018-08-18T17:42:09.552Z,54.27
2018-08-18T17:44:38.047Z,54.50
2018-08-18T17:47:08.000Z,55.28
2018-08-18T17:49:41.356Z,55.18
2018-08-18T17:52:09.869Z,55.05
2018-08-18T17:54:38.915Z,54.85
2018-08-18T17:57:08.062Z,54.63
2018-08-18T17:59:37.099Z,55.32
2018-08-18T18:02:11.674Z,55.38
2018-08-18T18:04:40.220Z,55.26
2018-08-18T18:07:09.420Z,55.42
2018-08-18T18:09:37.857Z,56.31
2018-08-18T18:12:22.356Z,55.38
2018-08-18T18:14:50.868Z,55.97
2018-08-18T18:17:20.660Z,55.56
2018-08-18T18:19:49.180Z,55.59
2018-08-18T18:22:17.759Z,56.30
2018-08-18T18:24:46.235Z,55.89
2018-08-18T18:27:14.616Z,56.52
2018-08-18T18:29:44.069Z,56.03
2018-08-18T18:32:12.580Z,55.91
2018-08-18T18:34:41.324Z,56.58
2018-08-18T18:37:09.822Z,56.25
2018-08-18T18:39:53.002Z,56.86
2018-08-18T18:42:21.478Z,56.39
2018-08-18T18:44:50.113Z,56.90
2018-08-18T18:47:18.619Z,56.93
2018-08-18T18:49:47.171Z,57.34
2018-08-18T18:52:15.550Z,56.57
2018-08-18T18:54:43.926Z,56.33
2018-08-18T18:57:12.341Z,57.07
2018-08-18T18:59:46.048Z,57.00
2018-08-18T19:02:14.496Z,58.07
2018-08-18T19:04:42.987Z,57.62
2018-08-18T19:07:11.535Z,58.01
2018-08-18T19:09:39.974Z,58.33
2018-08-18T19:12:08.386Z,58.30
2018-08-18T19:14:36.816Z,57.83
2018-08-18T19:17:05.257Z,56.88
2018-08-18T19:19:33.678Z,57.79
2018-08-18T19:22:03.211Z,57.61
2018-08-18T19:24:31.564Z,57.02
2018-08-18T19:27:00.834Z,57.32
2018-08-18T19:29:29.930Z,57.93
2018-08-18T19:31:59.960Z,58.07
2018-08-18T19:34:28.842Z,57.44
2018-08-18T19:36:59.869Z,57.87
2018-08-18T19:39:30.017Z,57.01
2018-08-18T19:42:08.588Z,57.63
2018-08-18T19:44:43.650Z,58.07
2018-08-18T19:47:12.097Z,58.06
2018-08-18T19:49:43.645Z,58.38
2018-08-18T19:52:13.329Z,57.75
2018-08-18T19:54:44.853Z,58.51
2018-08-18T19:57:13.939Z,58.26
2018-08-18T19:59:42.312Z,58.95
2018-08-18T20:02:10.695Z,58.88
2018-08-18T20:04:39.188Z,58.25
2018-08-18T20:07:07.682Z,57.97
2018-08-18T20:09:36.195Z,58.57
2018-08-18T20:12:04.615Z,57.77
2018-08-18T20:14:33.003Z,58.37
2018-08-18T20:17:01.398Z,58.76
2018-08-18T20:19:29.786Z,58.26
2018-08-18T20:21:58.308Z,58.01
2018-08-18T20:24:26.800Z,58.76
2018-08-18T20:26:55.225Z,59.66
2018-08-18T20:29:23.681Z,59.18
2018-08-18T20:32:01.089Z,59.32
2018-08-18T20:34:29.861Z,59.06
2018-08-18T20:36:58.307Z,59.98
2018-08-18T20:39:28.784Z,59.70
2018-08-18T20:41:57.704Z,60.95
2018-08-18T20:44:29.535Z,59.53
2018-08-18T20:46:58.377Z,59.69
2018-08-18T20:49:26.728Z,59.23
2018-08-18T20:51:55.176Z,60.09
2018-08-18T20:54:23.544Z,59.79
2018-08-18T20:56:52.016Z,59.26
2018-08-18T20:59:20.361Z,60.20
2018-08-18T21:01:48.886Z,60.40
2018-08-18T21:04:17.398Z,59.70
2018-08-18T21:06:45.888Z,61.33
2018-08-18T21:09:25.606Z,59.95
2018-08-18T21:11:54.072Z,60.01
2018-08-18T21:14:22.552Z,61.38
2018-08-18T21:16:50.945Z,60.74
2018-08-18T21:19:22.969Z,61.33
2018-08-18T21:21:51.704Z,60.78
2018-08-18T21:24:20.184Z,61.09
2018-08-18T21:26:49.362Z,60.81
2018-08-18T21:29:17.777Z,59.99
2018-08-18T21:31:50.472Z,60.55
2018-08-18T21:34:19.283Z,61.57
2018-08-18T21:36:47.707Z,60.61
2018-08-18T21:39:16.282Z,60.40
2018-08-18T21:41:46.162Z,60.25
2018-08-18T21:44:15.323Z,60.78
2018-08-18T21:46:43.920Z,61.00
2018-08-18T21:49:12.938Z,60.84
2018-08-18T21:51:41.381Z,61.16
2018-08-18T21:54:09.766Z,61.25
2018-08-18T21:56:39.616Z,61.33
2018-08-18T21:59:10.005Z,61.92
2018-08-18T22:01:38.451Z,61.07
2018-08-18T22:04:07.308Z,61.93
2018-08-18T22:06:35.710Z,62.00
2018-08-18T22:09:17.322Z,62.27
2018-08-18T22:11:45.861Z,61.77
2018-08-18T22:14:15.571Z,61.44
2018-08-18T22:16:49.326Z,61.89
2018-08-18T22:19:20.012Z,61.91
2018-08-18T22:21:48.358Z,62.35
2018-08-18T22:24:16.772Z,62.22
2018-08-18T22:26:45.118Z,62.39
2018-08-18T22:29:13.672Z,62.78
2018-08-18T22:31:42.078Z,62.16
2018-08-18T22:34:10.432Z,62.89
2018-08-18T22:36:38.836Z,62.61
2018-08-18T22:39:11.208Z,62.60
2018-08-18T22:41:43.551Z,62.89
2018-08-18T22:44:11.965Z,62.65
2018-08-18T22:46:40.378Z,62.49
2018-08-18T22:49:08.791Z,63.58
2018-08-18T22:51:37.258Z,63.54
2018-08-18T22:54:05.637Z,63.45
2018-08-18T22:56:37.038Z,64.01
2018-08-18T22:59:07.867Z,63.30
2018-08-18T23:01:37.452Z,63.47
2018-08-18T23:04:18.892Z,63.82
2018-08-18T23:06:47.309Z,65.63
2018-08-18T23:09:15.718Z,63.73
2018-08-18T23:11:44.773Z,63.30
2018-08-18T23:14:13.157Z,63.22
2018-08-18T23:16:42.122Z,63.22
2018-08-18T23:19:10.602Z,64.33
2018-08-18T23:21:38.976Z,63.98
2018-08-18T23:24:21.593Z,63.65
2018-08-18T23:26:50.103Z,64.59
2018-08-18T23:29:18.460Z,63.53
2018-08-18T23:31:47.450Z,63.90
2018-08-18T23:34:15.885Z,63.90
2018-08-18T23:36:44.858Z,64.45
2018-08-18T23:39:13.841Z,64.61
2018-08-18T23:41:42.667Z,64.36
2018-08-18T23:44:11.697Z,64.31
2018-08-18T23:46:40.151Z,63.84
2018-08-18T23:49:08.665Z,64.00
2018-08-18T23:51:42.155Z,64.54
2018-08-18T23:54:14.732Z,64.28
2018-08-18T23:56:43.111Z,64.87
2018-08-18T23:59:11.527Z,64.49
